sensor_id;sensor_type;location;lat;lon;timestamp;P1;durP1;ratioP1;P2;durP2;ratioP2
39846;SDS011;25517;52.422;10.782;2023-01-01T00:00:24;24.88;;;14.07;;
39846;SDS011;25517;52.422;10.782;2023-01-01T00:02:49;27.50;;;13.52;;
39846;SDS011;25517;52.422;10.782;2023-01-01T00:05:15;26.95;;;13.25;;
39846;SDS011;25517;52.422;10.782;2023-01-01T00:07:40;26.15;;;14.68;;
39846;SDS011;25517;52.422;10.782;2023-01-01T00:10:06;24.38;;;14.07;;
39846;SDS011;25517;52.422;10.782;2023-01-01T00:12:52;26.25;;;13.45;;
39846;SDS011;25517;52.422;10.782;2023-01-01T00:15:17;18.63;;;11.88;;
39846;SDS011;25517;52.422;10.782;2023-01-01T00:17:43;26.88;;;11.50;;
39846;SDS011;25517;52.422;10.782;2023-01-01T00:20:09;18.45;;;11.43;;
39846;SDS011;25517;52.422;10.782;2023-01-01T00:22:35;18.25;;;9.80;;
39846;SDS011;25517;52.422;10.782;2023-01-01T00:25:00;20.92;;;9.95;;
39846;SDS011;25517;52.422;10.782;2023-01-01T00:27:26;21.27;;;9.35;;
39846;SDS011;25517;52.422;10.782;2023-01-01T00:29:51;20.58;;;8.82;;
39846;SDS011;25517;52.422;10.782;2023-01-01T00:32:17;14.30;;;8.00;;
39846;SDS011;25517;52.422;10.782;2023-01-01T00:34:42;14.73;;;6.65;;
39846;SDS011;25517;52.422;10.782;2023-01-01T00:37:08;16.35;;;7.40;;
39846;SDS011;25517;52.422;10.782;2023-01-01T00:39:33;26.30;;;7.03;;
39846;SDS011;25517;52.422;10.782;2023-01-01T00:41:58;13.45;;;7.10;;
39846;SDS011;25517;52.422;10.782;2023-01-01T00:44:24;20.88;;;6.80;;
39846;SDS011;25517;52.422;10.782;2023-01-01T00:46:49;13.25;;;5.60;;
39846;SDS011;25517;52.422;10.782;2023-01-01T00:49:15;8.85;;;5.45;;
39846;SDS011;25517;52.422;10.782;2023-01-01T00:51:40;9.77;;;5.43;;
39846;SDS011;25517;52.422;10.782;2023-01-01T00:54:06;15.88;;;5.07;;
39846;SDS011;25517;52.422;10.782;2023-01-01T00:56:32;14.40;;;4.82;;
39846;SDS011;25517;52.422;10.782;2023-01-01T00:58:57;13.73;;;5.47;;
39846;SDS011;25517;52.422;10.782;2023-01-01T01:01:23;14.40;;;4.93;;
39846;SDS011;25517;52.422;10.782;2023-01-01T01:03:48;14.55;;;4.65;;
39846;SDS011;25517;52.422;10.782;2023-01-01T01:06:15;16.38;;;5.05;;
39846;SDS011;25517;52.422;10.782;2023-01-01T01:08:42;19.58;;;5.20;;
39846;SDS011;25517;52.422;10.782;2023-01-01T01:11:10;17.55;;;4.90;;
39846;SDS011;25517;52.422;10.782;2023-01-01T01:13:39;10.83;;;4.97;;
39846;SDS011;25517;52.422;10.782;2023-01-01T01:16:07;15.27;;;4.95;;
39846;SDS011;25517;52.422;10.782;2023-01-01T01:18:33;12.30;;;4.07;;
39846;SDS011;25517;52.422;10.782;2023-01-01T01:20:59;13.60;;;4.28;;
39846;SDS011;25517;52.422;10.782;2023-01-01T01:23:25;11.07;;;4.85;;
39846;SDS011;25517;52.422;10.782;2023-01-01T01:25:50;10.50;;;4.35;;
39846;SDS011;25517;52.422;10.782;2023-01-01T01:28:16;11.65;;;4.25;;
39846;SDS011;25517;52.422;10.782;2023-01-01T01:30:41;13.35;;;4.28;;
39846;SDS011;25517;52.422;10.782;2023-01-01T01:33:07;9.52;;;3.75;;
39846;SDS011;25517;52.422;10.782;2023-01-01T01:35:33;15.75;;;5.07;;
39846;SDS011;25517;52.422;10.782;2023-01-01T01:37:58;13.88;;;4.38;;
39846;SDS011;25517;52.422;10.782;2023-01-01T01:40:24;11.90;;;5.22;;
39846;SDS011;25517;52.422;10.782;2023-01-01T01:42:50;12.20;;;4.40;;
39846;SDS011;25517;52.422;10.782;2023-01-01T01:45:16;11.23;;;4.63;;
39846;SDS011;25517;52.422;10.782;2023-01-01T01:47:52;15.15;;;4.18;;
39846;SDS011;25517;52.422;10.782;2023-01-01T01:53:08;20.45;;;4.63;;
39846;SDS011;25517;52.422;10.782;2023-01-01T01:55:42;7.10;;;3.53;;
39846;SDS011;25517;52.422;10.782;2023-01-01T01:58:14;17.60;;;4.40;;
39846;SDS011;25517;52.422;10.782;2023-01-01T02:00:41;13.95;;;4.60;;
39846;SDS011;25517;52.422;10.782;2023-01-01T02:03:07;10.07;;;4.18;;
39846;SDS011;25517;52.422;10.782;2023-01-01T02:05:35;12.77;;;4.75;;
39846;SDS011;25517;52.422;10.782;2023-01-01T02:08:03;13.77;;;4.25;;
39846;SDS011;25517;52.422;10.782;2023-01-01T02:10:29;7.85;;;4.05;;
39846;SDS011;25517;52.422;10.782;2023-01-01T02:12:55;15.85;;;4.50;;
39846;SDS011;25517;52.422;10.782;2023-01-01T02:15:21;12.85;;;3.70;;
39846;SDS011;25517;52.422;10.782;2023-01-01T02:18:27;13.77;;;4.15;;
39846;SDS011;25517;52.422;10.782;2023-01-01T02:20:49;12.60;;;3.90;;
39846;SDS011;25517;52.422;10.782;2023-01-01T02:26:36;11.65;;;3.90;;
39846;SDS011;25517;52.422;10.782;2023-01-01T02:32:07;13.75;;;4.38;;
39846;SDS011;25517;52.422;10.782;2023-01-01T02:34:40;13.38;;;4.78;;
39846;SDS011;25517;52.422;10.782;2023-01-01T02:37:11;11.45;;;3.75;;
39846;SDS011;25517;52.422;10.782;2023-01-01T02:39:41;11.40;;;4.43;;
39846;SDS011;25517;52.422;10.782;2023-01-01T02:42:14;11.52;;;4.25;;
39846;SDS011;25517;52.422;10.782;2023-01-01T02:44:41;9.48;;;4.20;;
39846;SDS011;25517;52.422;10.782;2023-01-01T02:47:11;13.07;;;3.78;;
39846;SDS011;25517;52.422;10.782;2023-01-01T02:52:19;11.25;;;4.20;;
39846;SDS011;25517;52.422;10.782;2023-01-01T02:55:06;10.77;;;4.65;;
39846;SDS011;25517;52.422;10.782;2023-01-01T03:01:19;13.95;;;4.63;;
39846;SDS011;25517;52.422;10.782;2023-01-01T03:03:58;10.80;;;5.13;;
39846;SDS011;25517;52.422;10.782;2023-01-01T03:06:59;16.65;;;4.97;;
39846;SDS011;25517;52.422;10.782;2023-01-01T03:09:47;11.20;;;5.13;;
39846;SDS011;25517;52.422;10.782;2023-01-01T03:12:27;11.55;;;5.43;;
39846;SDS011;25517;52.422;10.782;2023-01-01T03:15:26;16.10;;;5.82;;
39846;SDS011;25517;52.422;10.782;2023-01-01T03:18:07;12.25;;;4.65;;
39846;SDS011;25517;52.422;10.782;2023-01-01T03:20:40;11.10;;;5.10;;
39846;SDS011;25517;52.422;10.782;2023-01-01T03:23:15;16.15;;;5.93;;
39846;SDS011;25517;52.422;10.782;2023-01-01T03:25:47;13.25;;;5.03;;
39846;SDS011;25517;52.422;10.782;2023-01-01T03:28:17;12.75;;;5.30;;
39846;SDS011;25517;52.422;10.782;2023-01-01T03:30:46;13.38;;;5.65;;
39846;SDS011;25517;52.422;10.782;2023-01-01T03:33:16;11.80;;;4.68;;
39846;SDS011;25517;52.422;10.782;2023-01-01T03:35:49;15.23;;;5.53;;
39846;SDS011;25517;52.422;10.782;2023-01-01T03:41:01;18.15;;;5.45;;
39846;SDS011;25517;52.422;10.782;2023-01-01T03:43:50;11.43;;;4.67;;
39846;SDS011;25517;52.422;10.782;2023-01-01T03:46:21;8.75;;;3.58;;
39846;SDS011;25517;52.422;10.782;2023-01-01T03:56:44;7.22;;;3.92;;
39846;SDS011;25517;52.422;10.782;2023-01-01T04:02:03;17.65;;;5.47;;
39846;SDS011;25517;52.422;10.782;2023-01-01T04:04:32;14.07;;;5.17;;
39846;SDS011;25517;52.422;10.782;2023-01-01T04:06:59;9.88;;;4.53;;
39846;SDS011;25517;52.422;10.782;2023-01-01T04:09:27;15.23;;;4.78;;
39846;SDS011;25517;52.422;10.782;2023-01-01T04:11:55;9.82;;;4.88;;
39846;SDS011;25517;52.422;10.782;2023-01-01T04:14:26;16.52;;;4.28;;
39846;SDS011;25517;52.422;10.782;2023-01-01T04:16:52;15.05;;;4.38;;
39846;SDS011;25517;52.422;10.782;2023-01-01T04:19:18;10.40;;;3.97;;
39846;SDS011;25517;52.422;10.782;2023-01-01T04:21:44;13.15;;;4.95;;
39846;SDS011;25517;52.422;10.782;2023-01-01T04:24:09;17.13;;;5.18;;
39846;SDS011;25517;52.422;10.782;2023-01-01T04:26:35;16.08;;;5.63;;
39846;SDS011;25517;52.422;10.782;2023-01-01T04:29:01;9.38;;;4.68;;
39846;SDS011;25517;52.422;10.782;2023-01-01T04:31:26;9.38;;;4.35;;
39846;SDS011;25517;52.422;10.782;2023-01-01T04:33:52;10.13;;;4.30;;
39846;SDS011;25517;52.422;10.782;2023-01-01T04:36:18;13.50;;;4.70;;
39846;SDS011;25517;52.422;10.782;2023-01-01T04:38:43;10.40;;;4.60;;
39846;SDS011;25517;52.422;10.782;2023-01-01T04:41:09;9.43;;;5.18;;
39846;SDS011;25517;52.422;10.782;2023-01-01T04:43:35;12.35;;;4.90;;
39846;SDS011;25517;52.422;10.782;2023-01-01T04:46:01;18.17;;;4.97;;
39846;SDS011;25517;52.422;10.782;2023-01-01T04:48:28;9.25;;;5.18;;
39846;SDS011;25517;52.422;10.782;2023-01-01T04:50:55;9.75;;;4.60;;
39846;SDS011;25517;52.422;10.782;2023-01-01T04:53:27;8.57;;;4.57;;
39846;SDS011;25517;52.422;10.782;2023-01-01T04:55:53;9.63;;;4.75;;
39846;SDS011;25517;52.422;10.782;2023-01-01T04:58:19;14.45;;;5.47;;
39846;SDS011;25517;52.422;10.782;2023-01-01T05:00:48;17.67;;;4.97;;
39846;SDS011;25517;52.422;10.782;2023-01-01T05:03:14;9.27;;;4.07;;
39846;SDS011;25517;52.422;10.782;2023-01-01T05:05:40;7.70;;;4.10;;
39846;SDS011;25517;52.422;10.782;2023-01-01T05:08:06;15.07;;;4.68;;
39846;SDS011;25517;52.422;10.782;2023-01-01T05:10:32;9.60;;;5.32;;
39846;SDS011;25517;52.422;10.782;2023-01-01T05:12:58;9.57;;;4.88;;
39846;SDS011;25517;52.422;10.782;2023-01-01T05:15:23;10.43;;;4.68;;
39846;SDS011;25517;52.422;10.782;2023-01-01T05:17:52;11.98;;;4.68;;
39846;SDS011;25517;52.422;10.782;2023-01-01T05:20:18;9.15;;;4.38;;
39846;SDS011;25517;52.422;10.782;2023-01-01T05:22:44;10.00;;;4.25;;
39846;SDS011;25517;52.422;10.782;2023-01-01T05:25:10;11.88;;;5.13;;
39846;SDS011;25517;52.422;10.782;2023-01-01T05:27:36;10.25;;;4.80;;
39846;SDS011;25517;52.422;10.782;2023-01-01T05:30:02;12.50;;;5.03;;
39846;SDS011;25517;52.422;10.782;2023-01-01T05:32:27;13.63;;;4.75;;
39846;SDS011;25517;52.422;10.782;2023-01-01T05:34:53;16.70;;;5.30;;
39846;SDS011;25517;52.422;10.782;2023-01-01T05:37:20;12.48;;;5.00;;
39846;SDS011;25517;52.422;10.782;2023-01-01T05:39:46;10.75;;;5.30;;
39846;SDS011;25517;52.422;10.782;2023-01-01T05:42:12;10.55;;;4.97;;
39846;SDS011;25517;52.422;10.782;2023-01-01T05:44:39;6.63;;;4.80;;
39846;SDS011;25517;52.422;10.782;2023-01-01T05:47:05;17.67;;;5.15;;
39846;SDS011;25517;52.422;10.782;2023-01-01T05:49:30;12.55;;;5.78;;
39846;SDS011;25517;52.422;10.782;2023-01-01T05:51:56;14.10;;;6.10;;
39846;SDS011;25517;52.422;10.782;2023-01-01T05:54:22;11.20;;;5.43;;
39846;SDS011;25517;52.422;10.782;2023-01-01T05:56:47;8.85;;;5.55;;
39846;SDS011;25517;52.422;10.782;2023-01-01T05:59:13;11.20;;;5.47;;
39846;SDS011;25517;52.422;10.782;2023-01-01T06:01:38;12.02;;;6.63;;
39846;SDS011;25517;52.422;10.782;2023-01-01T06:04:04;14.32;;;5.45;;
39846;SDS011;25517;52.422;10.782;2023-01-01T06:06:30;11.63;;;5.25;;
39846;SDS011;25517;52.422;10.782;2023-01-01T06:08:58;8.85;;;5.15;;
39846;SDS011;25517;52.422;10.782;2023-01-01T06:11:25;10.45;;;5.45;;
39846;SDS011;25517;52.422;10.782;2023-01-01T06:13:52;12.25;;;5.65;;
39846;SDS011;25517;52.422;10.782;2023-01-01T06:16:18;12.43;;;5.80;;
39846;SDS011;25517;52.422;10.782;2023-01-01T06:18:44;9.68;;;5.35;;
39846;SDS011;25517;52.422;10.782;2023-01-01T06:21:11;8.73;;;5.50;;
39846;SDS011;25517;52.422;10.782;2023-01-01T06:23:38;11.23;;;6.28;;
39846;SDS011;25517;52.422;10.782;2023-01-01T06:26:05;10.77;;;5.57;;
39846;SDS011;25517;52.422;10.782;2023-01-01T06:28:40;12.10;;;5.80;;
39846;SDS011;25517;52.422;10.782;2023-01-01T06:31:07;12.95;;;6.18;;
39846;SDS011;25517;52.422;10.782;2023-01-01T06:33:34;10.95;;;5.72;;
39846;SDS011;25517;52.422;10.782;2023-01-01T06:36:01;9.85;;;5.88;;
39846;SDS011;25517;52.422;10.782;2023-01-01T06:38:31;12.38;;;5.40;;
39846;SDS011;25517;52.422;10.782;2023-01-01T06:40:59;20.30;;;6.05;;
39846;SDS011;25517;52.422;10.782;2023-01-01T06:43:26;9.70;;;4.63;;
39846;SDS011;25517;52.422;10.782;2023-01-01T06:46:06;10.73;;;5.75;;
39846;SDS011;25517;52.422;10.782;2023-01-01T06:48:45;13.25;;;6.75;;
39846;SDS011;25517;52.422;10.782;2023-01-01T06:51:13;10.93;;;5.13;;
39846;SDS011;25517;52.422;10.782;2023-01-01T06:53:40;14.20;;;6.32;;
39846;SDS011;25517;52.422;10.782;2023-01-01T06:56:06;11.10;;;6.13;;
39846;SDS011;25517;52.422;10.782;2023-01-01T06:58:33;11.07;;;5.90;;
39846;SDS011;25517;52.422;10.782;2023-01-01T07:01:17;12.57;;;6.03;;
39846;SDS011;25517;52.422;10.782;2023-01-01T07:03:53;12.75;;;5.63;;
39846;SDS011;25517;52.422;10.782;2023-01-01T07:06:21;8.50;;;5.53;;
39846;SDS011;25517;52.422;10.782;2023-01-01T07:08:47;13.02;;;6.80;;
39846;SDS011;25517;52.422;10.782;2023-01-01T07:11:14;16.60;;;6.25;;
39846;SDS011;25517;52.422;10.782;2023-01-01T07:13:39;11.45;;;6.03;;
39846;SDS011;25517;52.422;10.782;2023-01-01T07:16:05;14.98;;;6.60;;
39846;SDS011;25517;52.422;10.782;2023-01-01T07:18:31;12.70;;;6.25;;
39846;SDS011;25517;52.422;10.782;2023-01-01T07:21:00;10.13;;;5.85;;
39846;SDS011;25517;52.422;10.782;2023-01-01T07:23:28;14.02;;;5.70;;
39846;SDS011;25517;52.422;10.782;2023-01-01T07:25:55;12.23;;;6.15;;
39846;SDS011;25517;52.422;10.782;2023-01-01T07:28:21;20.23;;;6.00;;
39846;SDS011;25517;52.422;10.782;2023-01-01T07:30:48;16.23;;;5.45;;
39846;SDS011;25517;52.422;10.782;2023-01-01T07:33:14;17.73;;;6.20;;
39846;SDS011;25517;52.422;10.782;2023-01-01T07:35:41;13.25;;;5.50;;
39846;SDS011;25517;52.422;10.782;2023-01-01T07:38:08;12.30;;;6.40;;
39846;SDS011;25517;52.422;10.782;2023-01-01T07:40:34;12.52;;;5.53;;
39846;SDS011;25517;52.422;10.782;2023-01-01T07:43:00;11.13;;;5.63;;
39846;SDS011;25517;52.422;10.782;2023-01-01T07:45:26;17.40;;;6.82;;
39846;SDS011;25517;52.422;10.782;2023-01-01T07:47:52;9.13;;;5.32;;
39846;SDS011;25517;52.422;10.782;2023-01-01T07:50:19;11.07;;;6.47;;
39846;SDS011;25517;52.422;10.782;2023-01-01T07:52:46;14.52;;;5.47;;
39846;SDS011;25517;52.422;10.782;2023-01-01T07:55:12;10.88;;;6.10;;
39846;SDS011;25517;52.422;10.782;2023-01-01T07:57:42;12.98;;;7.28;;
39846;SDS011;25517;52.422;10.782;2023-01-01T08:00:10;10.57;;;5.75;;
39846;SDS011;25517;52.422;10.782;2023-01-01T08:02:38;13.63;;;6.05;;
39846;SDS011;25517;52.422;10.782;2023-01-01T08:05:03;10.77;;;5.53;;
39846;SDS011;25517;52.422;10.782;2023-01-01T08:07:30;10.05;;;5.50;;
39846;SDS011;25517;52.422;10.782;2023-01-01T08:09:55;10.13;;;5.50;;
39846;SDS011;25517;52.422;10.782;2023-01-01T08:12:21;13.65;;;5.63;;
39846;SDS011;25517;52.422;10.782;2023-01-01T08:14:46;14.45;;;6.45;;
39846;SDS011;25517;52.422;10.782;2023-01-01T08:17:12;9.60;;;5.72;;
39846;SDS011;25517;52.422;10.782;2023-01-01T08:19:37;13.50;;;5.32;;
39846;SDS011;25517;52.422;10.782;2023-01-01T08:22:03;10.80;;;6.05;;
39846;SDS011;25517;52.422;10.782;2023-01-01T08:24:28;12.48;;;6.38;;
39846;SDS011;25517;52.422;10.782;2023-01-01T08:26:54;10.55;;;6.03;;
39846;SDS011;25517;52.422;10.782;2023-01-01T08:29:20;10.27;;;5.65;;
39846;SDS011;25517;52.422;10.782;2023-01-01T08:31:46;9.57;;;5.65;;
39846;SDS011;25517;52.422;10.782;2023-01-01T08:34:11;7.95;;;5.88;;
39846;SDS011;25517;52.422;10.782;2023-01-01T08:36:37;9.82;;;5.45;;
39846;SDS011;25517;52.422;10.782;2023-01-01T08:39:04;11.52;;;5.68;;
39846;SDS011;25517;52.422;10.782;2023-01-01T08:41:30;9.52;;;5.93;;
39846;SDS011;25517;52.422;10.782;2023-01-01T08:43:56;13.43;;;6.15;;
39846;SDS011;25517;52.422;10.782;2023-01-01T08:46:22;9.27;;;5.22;;
39846;SDS011;25517;52.422;10.782;2023-01-01T08:48:47;13.45;;;5.78;;
39846;SDS011;25517;52.422;10.782;2023-01-01T08:51:14;13.60;;;5.50;;
39846;SDS011;25517;52.422;10.782;2023-01-01T08:53:39;12.73;;;5.95;;
39846;SDS011;25517;52.422;10.782;2023-01-01T08:56:08;13.48;;;5.28;;
39846;SDS011;25517;52.422;10.782;2023-01-01T08:58:36;11.52;;;5.60;;
39846;SDS011;25517;52.422;10.782;2023-01-01T09:01:03;12.13;;;5.75;;
39846;SDS011;25517;52.422;10.782;2023-01-01T09:03:29;12.38;;;5.57;;
39846;SDS011;25517;52.422;10.782;2023-01-01T09:05:55;9.85;;;5.65;;
39846;SDS011;25517;52.422;10.782;2023-01-01T09:08:21;10.88;;;5.30;;
39846;SDS011;25517;52.422;10.782;2023-01-01T09:10:47;9.13;;;5.15;;
39846;SDS011;25517;52.422;10.782;2023-01-01T09:13:14;8.35;;;4.93;;
39846;SDS011;25517;52.422;10.782;2023-01-01T09:15:41;8.45;;;5.38;;
39846;SDS011;25517;52.422;10.782;2023-01-01T09:18:07;9.30;;;5.32;;
39846;SDS011;25517;52.422;10.782;2023-01-01T09:20:34;8.88;;;5.20;;
39846;SDS011;25517;52.422;10.782;2023-01-01T09:22:59;7.93;;;4.60;;
39846;SDS011;25517;52.422;10.782;2023-01-01T09:25:25;8.02;;;4.25;;
39846;SDS011;25517;52.422;10.782;2023-01-01T09:28:00;7.80;;;4.00;;
39846;SDS011;25517;52.422;10.782;2023-01-01T09:30:28;7.47;;;4.05;;
39846;SDS011;25517;52.422;10.782;2023-01-01T09:32:54;7.93;;;4.40;;
39846;SDS011;25517;52.422;10.782;2023-01-01T09:35:20;8.45;;;4.30;;
39846;SDS011;25517;52.422;10.782;2023-01-01T09:37:46;9.07;;;4.18;;
39846;SDS011;25517;52.422;10.782;2023-01-01T09:40:21;6.22;;;4.18;;
39846;SDS011;25517;52.422;10.782;2023-01-01T09:42:48;7.13;;;3.95;;
39846;SDS011;25517;52.422;10.782;2023-01-01T09:47:48;8.68;;;4.20;;
39846;SDS011;25517;52.422;10.782;2023-01-01T09:50:21;11.30;;;4.38;;
39846;SDS011;25517;52.422;10.782;2023-01-01T09:52:53;7.72;;;4.45;;
39846;SDS011;25517;52.422;10.782;2023-01-01T09:58:06;10.27;;;4.30;;
39846;SDS011;25517;52.422;10.782;2023-01-01T10:00:35;6.73;;;3.63;;
39846;SDS011;25517;52.422;10.782;2023-01-01T10:05:58;13.25;;;4.60;;
39846;SDS011;25517;52.422;10.782;2023-01-01T10:13:49;8.82;;;4.80;;
39846;SDS011;25517;52.422;10.782;2023-01-01T10:18:58;8.68;;;4.13;;
39846;SDS011;25517;52.422;10.782;2023-01-01T10:21:32;8.90;;;4.35;;
39846;SDS011;25517;52.422;10.782;2023-01-01T10:24:03;11.20;;;4.43;;
39846;SDS011;25517;52.422;10.782;2023-01-01T10:26:50;8.48;;;4.53;;
39846;SDS011;25517;52.422;10.782;2023-01-01T10:29:19;6.93;;;4.00;;
39846;SDS011;25517;52.422;10.782;2023-01-01T10:31:50;8.38;;;4.55;;
39846;SDS011;25517;52.422;10.782;2023-01-01T10:34:22;10.43;;;4.38;;
39846;SDS011;25517;52.422;10.782;2023-01-01T10:36:53;8.80;;;4.05;;
39846;SDS011;25517;52.422;10.782;2023-01-01T10:39:21;7.40;;;4.70;;
39846;SDS011;25517;52.422;10.782;2023-01-01T10:41:48;12.32;;;4.82;;
39846;SDS011;25517;52.422;10.782;2023-01-01T10:44:15;6.82;;;4.47;;
39846;SDS011;25517;52.422;10.782;2023-01-01T10:46:55;7.60;;;4.30;;
39846;SDS011;25517;52.422;10.782;2023-01-01T10:49:23;7.18;;;4.57;;
39846;SDS011;25517;52.422;10.782;2023-01-01T10:51:50;7.32;;;4.30;;
39846;SDS011;25517;52.422;10.782;2023-01-01T10:54:36;7.20;;;4.55;;
39846;SDS011;25517;52.422;10.782;2023-01-01T10:59:51;9.55;;;4.47;;
39846;SDS011;25517;52.422;10.782;2023-01-01T11:04:43;9.93;;;4.72;;
39846;SDS011;25517;52.422;10.782;2023-01-01T11:07:11;7.18;;;4.03;;
39846;SDS011;25517;52.422;10.782;2023-01-01T11:09:57;10.65;;;3.92;;
39846;SDS011;25517;52.422;10.782;2023-01-01T11:12:34;7.78;;;3.58;;
39846;SDS011;25517;52.422;10.782;2023-01-01T11:15:02;4.57;;;3.03;;
39846;SDS011;25517;52.422;10.782;2023-01-01T11:17:30;6.65;;;3.10;;
39846;SDS011;25517;52.422;10.782;2023-01-01T11:19:58;8.70;;;2.45;;
39846;SDS011;25517;52.422;10.782;2023-01-01T11:22:35;9.20;;;2.50;;
39846;SDS011;25517;52.422;10.782;2023-01-01T11:25:22;5.07;;;2.03;;
39846;SDS011;25517;52.422;10.782;2023-01-01T11:28:08;3.45;;;1.83;;
39846;SDS011;25517;52.422;10.782;2023-01-01T11:30:57;7.22;;;2.30;;
39846;SDS011;25517;52.422;10.782;2023-01-01T11:33:26;6.70;;;2.38;;
39846;SDS011;25517;52.422;10.782;2023-01-01T11:35:53;7.97;;;2.47;;
39846;SDS011;25517;52.422;10.782;2023-01-01T11:38:20;5.68;;;1.90;;
39846;SDS011;25517;52.422;10.782;2023-01-01T11:40:49;11.27;;;2.38;;
39846;SDS011;25517;52.422;10.782;2023-01-01T11:43:21;5.57;;;2.72;;
39846;SDS011;25517;52.422;10.782;2023-01-01T11:45:49;8.73;;;2.30;;
39846;SDS011;25517;52.422;10.782;2023-01-01T11:48:22;6.55;;;2.58;;
39846;SDS011;25517;52.422;10.782;2023-01-01T11:50:57;6.63;;;2.47;;
39846;SDS011;25517;52.422;10.782;2023-01-01T11:53:30;6.13;;;2.08;;
39846;SDS011;25517;52.422;10.782;2023-01-01T12:01:18;3.05;;;2.17;;
39846;SDS011;25517;52.422;10.782;2023-01-01T12:03:54;6.70;;;2.17;;
39846;SDS011;25517;52.422;10.782;2023-01-01T12:09:26;6.63;;;2.70;;
39846;SDS011;25517;52.422;10.782;2023-01-01T12:14:47;8.30;;;2.78;;
39846;SDS011;25517;52.422;10.782;2023-01-01T12:17:19;7.03;;;2.30;;
39846;SDS011;25517;52.422;10.782;2023-01-01T12:20:03;5.93;;;2.78;;
39846;SDS011;25517;52.422;10.782;2023-01-01T12:22:48;3.85;;;2.30;;
39846;SDS011;25517;52.422;10.782;2023-01-01T12:25:15;3.08;;;2.00;;
39846;SDS011;25517;52.422;10.782;2023-01-01T12:27:56;7.57;;;2.30;;
39846;SDS011;25517;52.422;10.782;2023-01-01T12:30:42;6.80;;;2.00;;
39846;SDS011;25517;52.422;10.782;2023-01-01T12:33:23;2.53;;;1.67;;
39846;SDS011;25517;52.422;10.782;2023-01-01T12:41:10;4.00;;;2.17;;
39846;SDS011;25517;52.422;10.782;2023-01-01T12:48:58;5.45;;;1.73;;
39846;SDS011;25517;52.422;10.782;2023-01-01T12:57:56;4.63;;;1.50;;
39846;SDS011;25517;52.422;10.782;2023-01-01T13:00:25;3.85;;;1.50;;
39846;SDS011;25517;52.422;10.782;2023-01-01T13:02:54;3.60;;;1.45;;
39846;SDS011;25517;52.422;10.782;2023-01-01T13:05:37;5.10;;;1.67;;
39846;SDS011;25517;52.422;10.782;2023-01-01T13:08:06;5.65;;;1.80;;
39846;SDS011;25517;52.422;10.782;2023-01-01T13:10:36;3.33;;;1.50;;
39846;SDS011;25517;52.422;10.782;2023-01-01T13:13:04;3.08;;;1.40;;
39846;SDS011;25517;52.422;10.782;2023-01-01T13:18:07;5.05;;;1.70;;
39846;SDS011;25517;52.422;10.782;2023-01-01T13:20:45;3.22;;;1.42;;
39846;SDS011;25517;52.422;10.782;2023-01-01T13:29:24;3.90;;;2.05;;
39846;SDS011;25517;52.422;10.782;2023-01-01T13:45:24;4.35;;;2.00;;
39846;SDS011;25517;52.422;10.782;2023-01-01T13:51:00;3.47;;;1.75;;
39846;SDS011;25517;52.422;10.782;2023-01-01T13:56:54;7.20;;;2.28;;
39846;SDS011;25517;52.422;10.782;2023-01-01T14:02:22;5.25;;;3.22;;
39846;SDS011;25517;52.422;10.782;2023-01-01T14:12:43;3.83;;;2.17;;
39846;SDS011;25517;52.422;10.782;2023-01-01T14:15:25;7.65;;;2.05;;
39846;SDS011;25517;52.422;10.782;2023-01-01T14:18:10;7.18;;;2.78;;
39846;SDS011;25517;52.422;10.782;2023-01-01T14:20:45;6.57;;;3.85;;
39846;SDS011;25517;52.422;10.782;2023-01-01T14:26:22;4.05;;;1.55;;
39846;SDS011;25517;52.422;10.782;2023-01-01T14:28:56;5.07;;;1.50;;
39846;SDS011;25517;52.422;10.782;2023-01-01T14:31:27;8.93;;;2.40;;
39846;SDS011;25517;52.422;10.782;2023-01-01T14:33:55;5.32;;;1.88;;
39846;SDS011;25517;52.422;10.782;2023-01-01T14:36:26;4.28;;;1.80;;
39846;SDS011;25517;52.422;10.782;2023-01-01T14:38:54;3.53;;;2.10;;
39846;SDS011;25517;52.422;10.782;2023-01-01T14:41:40;2.78;;;2.00;;
39846;SDS011;25517;52.422;10.782;2023-01-01T14:44:09;4.03;;;1.92;;
39846;SDS011;25517;52.422;10.782;2023-01-01T14:46:38;6.63;;;2.35;;
39846;SDS011;25517;52.422;10.782;2023-01-01T14:49:31;6.63;;;2.00;;
39846;SDS011;25517;52.422;10.782;2023-01-01T14:52:12;5.13;;;2.20;;
39846;SDS011;25517;52.422;10.782;2023-01-01T14:54:46;4.47;;;2.22;;
39846;SDS011;25517;52.422;10.782;2023-01-01T14:57:16;13.43;;;2.72;;
39846;SDS011;25517;52.422;10.782;2023-01-01T14:59:49;4.78;;;3.08;;
39846;SDS011;25517;52.422;10.782;2023-01-01T15:02:22;10.55;;;3.20;;
39846;SDS011;25517;52.422;10.782;2023-01-01T15:07:19;5.35;;;2.70;;
39846;SDS011;25517;52.422;10.782;2023-01-01T15:09:46;7.07;;;2.35;;
39846;SDS011;25517;52.422;10.782;2023-01-01T15:12:12;10.68;;;2.85;;
39846;SDS011;25517;52.422;10.782;2023-01-01T15:14:42;4.90;;;2.53;;
39846;SDS011;25517;52.422;10.782;2023-01-01T15:17:13;4.97;;;2.38;;
39846;SDS011;25517;52.422;10.782;2023-01-01T15:19:41;7.80;;;3.60;;
39846;SDS011;25517;52.422;10.782;2023-01-01T15:22:30;5.35;;;3.05;;
39846;SDS011;25517;52.422;10.782;2023-01-01T15:24:55;8.30;;;2.92;;
39846;SDS011;25517;52.422;10.782;2023-01-01T15:27:29;5.30;;;2.80;;
39846;SDS011;25517;52.422;10.782;2023-01-01T15:29:59;8.52;;;3.67;;
39846;SDS011;25517;52.422;10.782;2023-01-01T15:32:27;8.73;;;3.38;;
39846;SDS011;25517;52.422;10.782;2023-01-01T15:34:56;5.97;;;3.25;;
39846;SDS011;25517;52.422;10.782;2023-01-01T15:42:46;6.80;;;3.50;;
39846;SDS011;25517;52.422;10.782;2023-01-01T15:45:37;5.82;;;2.60;;
39846;SDS011;25517;52.422;10.782;2023-01-01T15:50:31;6.57;;;2.80;;
39846;SDS011;25517;52.422;10.782;2023-01-01T15:55:45;5.75;;;3.28;;
39846;SDS011;25517;52.422;10.782;2023-01-01T15:58:44;5.07;;;3.17;;
39846;SDS011;25517;52.422;10.782;2023-01-01T16:01:11;5.30;;;3.45;;
39846;SDS011;25517;52.422;10.782;2023-01-01T16:03:39;4.45;;;3.30;;
39846;SDS011;25517;52.422;10.782;2023-01-01T16:06:05;6.25;;;4.20;;
39846;SDS011;25517;52.422;10.782;2023-01-01T16:08:31;8.88;;;5.07;;
39846;SDS011;25517;52.422;10.782;2023-01-01T16:10:57;17.73;;;6.00;;
39846;SDS011;25517;52.422;10.782;2023-01-01T16:13:23;12.75;;;7.15;;
39846;SDS011;25517;52.422;10.782;2023-01-01T16:15:53;14.38;;;7.03;;
39846;SDS011;25517;52.422;10.782;2023-01-01T16:18:23;11.00;;;6.75;;
39846;SDS011;25517;52.422;10.782;2023-01-01T16:20:53;9.57;;;4.97;;
39846;SDS011;25517;52.422;10.782;2023-01-01T16:23:19;8.85;;;5.13;;
39846;SDS011;25517;52.422;10.782;2023-01-01T16:25:44;7.82;;;4.88;;
39846;SDS011;25517;52.422;10.782;2023-01-01T16:28:10;6.50;;;4.20;;
39846;SDS011;25517;52.422;10.782;2023-01-01T16:30:37;6.43;;;4.22;;
39846;SDS011;25517;52.422;10.782;2023-01-01T16:33:03;7.80;;;4.28;;
39846;SDS011;25517;52.422;10.782;2023-01-01T16:35:36;7.65;;;4.63;;
39846;SDS011;25517;52.422;10.782;2023-01-01T16:38:01;9.55;;;4.82;;
39846;SDS011;25517;52.422;10.782;2023-01-01T16:40:27;14.82;;;6.00;;
39846;SDS011;25517;52.422;10.782;2023-01-01T16:42:53;11.88;;;6.38;;
39846;SDS011;25517;52.422;10.782;2023-01-01T16:45:19;9.88;;;6.07;;
39846;SDS011;25517;52.422;10.782;2023-01-01T16:47:45;11.55;;;5.40;;
39846;SDS011;25517;52.422;10.782;2023-01-01T16:50:11;14.00;;;5.30;;
39846;SDS011;25517;52.422;10.782;2023-01-01T16:52:36;8.45;;;4.97;;